createdAt,value
2023-03-22T00:02:23.799Z,15.01
2023-03-22T00:04:57.625Z,15.09
2023-03-22T00:07:38.270Z,14.93
2023-03-22T00:10:23.100Z,14.88
2023-03-22T00:13:19.415Z,14.91
2023-03-22T00:16:13.216Z,15.05
2023-03-22T00:18:48.135Z,14.76
2023-03-22T00:24:17.136Z,14.78
2023-03-22T00:27:10.755Z,14.69
2023-03-22T00:29:52.554Z,14.76
2023-03-22T00:32:39.733Z,14.72
2023-03-22T00:35:12.484Z,14.46
2023-03-22T00:37:55.945Z,14.57
2023-03-22T00:40:45.674Z,14.52
2023-03-22T00:43:40.518Z,14.54
2023-03-22T00:46:28.645Z,14.50
2023-03-22T00:49:13.665Z,14.67
2023-03-22T00:52:01.447Z,14.48
2023-03-22T00:54:41.625Z,14.60
2023-03-22T00:57:24.429Z,14.67
2023-03-22T01:00:15.806Z,14.63
2023-03-22T01:03:09.630Z,14.45
2023-03-22T01:05:48.992Z,14.40
2023-03-22T01:08:41.465Z,14.36
2023-03-22T01:11:24.546Z,14.52
2023-03-22T01:14:10.096Z,14.39
2023-03-22T01:17:00.162Z,14.27
2023-03-22T01:19:34.976Z,14.56
2023-03-22T01:22:11.215Z,14.31
2023-03-22T01:24:48.669Z,14.31
2023-03-22T01:27:26.098Z,14.38
2023-03-22T01:30:05.417Z,14.18
2023-03-22T01:32:37.028Z,14.12
2023-03-22T01:35:20.679Z,14.18
2023-03-22T01:38:19.811Z,14.18
2023-03-22T01:41:22.072Z,14.09
2023-03-22T01:44:13.224Z,14.07
2023-03-22T01:46:49.997Z,13.93
2023-03-22T01:49:36.645Z,13.63
2023-03-22T01:52:17.351Z,13.65
2023-03-22T01:55:12.852Z,13.63
2023-03-22T01:57:48.380Z,14.09
2023-03-22T02:00:30.172Z,13.78
2023-03-22T02:03:19.056Z,13.77
2023-03-22T02:05:53.197Z,13.53
2023-03-22T02:08:27.507Z,13.77
2023-03-22T02:11:42.568Z,13.78
2023-03-22T02:14:45.028Z,13.89
2023-03-22T02:18:02.284Z,13.89
2023-03-22T02:20:57.274Z,13.73
2023-03-22T02:24:06.085Z,13.54
2023-03-22T02:27:00.747Z,13.46
2023-03-22T02:29:46.268Z,13.50
2023-03-22T02:33:31.613Z,13.42
2023-03-22T02:36:14.232Z,13.43
2023-03-22T02:38:59.448Z,13.52
2023-03-22T02:41:49.420Z,13.59
2023-03-22T02:45:03.681Z,13.60
2023-03-22T02:47:37.892Z,13.75
2023-03-22T02:50:52.494Z,13.66
2023-03-22T02:57:20.481Z,13.76
2023-03-22T03:00:20.976Z,13.93
2023-03-22T03:03:33.409Z,13.77
2023-03-22T03:06:47.584Z,13.66
2023-03-22T03:09:37.803Z,13.53
2023-03-22T03:12:33.307Z,13.50
2023-03-22T03:15:30.610Z,13.65
2023-03-22T03:19:02.504Z,13.68
2023-03-22T03:22:17.789Z,13.25
2023-03-22T03:25:05.194Z,13.26
2023-03-22T03:28:26.592Z,12.97
2023-03-22T03:31:17.485Z,12.95
2023-03-22T03:34:13.747Z,13.12
2023-03-22T03:36:59.998Z,13.16
2023-03-22T03:39:54.989Z,13.00
2023-03-22T03:42:40.870Z,13.19
2023-03-22T03:46:02.397Z,13.41
2023-03-22T03:48:39.153Z,13.94
2023-03-22T03:51:26.476Z,13.61
2023-03-22T03:54:07.920Z,13.59
2023-03-22T03:56:45.924Z,13.40
2023-03-22T03:59:35.217Z,13.36
2023-03-22T04:02:31.609Z,13.42
2023-03-22T04:05:26.722Z,13.54
2023-03-22T04:08:13.110Z,13.35
2023-03-22T04:10:49.014Z,13.77
2023-03-22T04:13:32.246Z,13.41
2023-03-22T04:16:07.892Z,13.42
2023-03-22T04:18:44.986Z,13.83
2023-03-22T04:21:19.438Z,13.90
2023-03-22T04:24:11.592Z,13.75
2023-03-22T04:26:59.673Z,13.99
2023-03-22T04:29:37.833Z,14.04
2023-03-22T04:35:30.614Z,13.62
2023-03-22T04:38:17.781Z,13.42
2023-03-22T04:40:46.924Z,13.30
2023-03-22T04:43:39.950Z,13.21
2023-03-22T04:46:22.923Z,13.23
2023-03-22T04:49:11.117Z,13.23
2023-03-22T04:51:47.127Z,13.45
2023-03-22T04:54:25.286Z,13.32
2023-03-22T04:57:06.155Z,13.28
2023-03-22T04:59:46.475Z,13.37
2023-03-22T05:02:20.138Z,13.73
2023-03-22T05:05:00.704Z,13.90
2023-03-22T05:07:51.216Z,13.80
2023-03-22T05:10:29.658Z,13.12
2023-03-22T05:13:02.914Z,13.27
2023-03-22T05:15:50.837Z,13.16
2023-03-22T05:18:30.788Z,13.20
2023-03-22T05:21:07.325Z,13.26
2023-03-22T05:23:42.760Z,13.12
2023-03-22T05:26:21.033Z,13.25
2023-03-22T05:29:03.111Z,13.30
2023-03-22T05:32:14.181Z,13.18
2023-03-22T05:34:47.913Z,13.36
2023-03-22T05:37:46.825Z,13.35
2023-03-22T05:40:46.732Z,13.33
2023-03-22T05:43:21.686Z,13.26
2023-03-22T05:45:56.066Z,13.30
2023-03-22T05:49:08.050Z,13.07
2023-03-22T05:51:41.952Z,13.09
2023-03-22T05:54:12.588Z,13.24
2023-03-22T05:57:06.241Z,13.13
2023-03-22T05:59:51.721Z,13.10
2023-03-22T06:02:58.810Z,13.32
2023-03-22T06:06:15.671Z,13.09
2023-03-22T06:10:01.189Z,13.10
2023-03-22T06:12:38.378Z,13.05
2023-03-22T06:15:23.841Z,12.89
2023-03-22T06:18:15.831Z,12.79
2023-03-22T06:21:23.060Z,12.93
2023-03-22T06:24:02.457Z,13.00
2023-03-22T06:27:11.802Z,13.02
2023-03-22T06:30:01.633Z,12.95
2023-03-22T06:32:45.156Z,13.15
2023-03-22T06:35:27.954Z,13.17
2023-03-22T06:38:24.342Z,13.44
2023-03-22T06:44:15.999Z,13.40
2023-03-22T06:47:11.920Z,13.21
2023-03-22T06:49:55.375Z,13.33
2023-03-22T06:52:27.635Z,13.47
2023-03-22T06:54:57.020Z,13.47
2023-03-22T06:57:36.790Z,13.46
2023-03-22T07:00:52.294Z,13.63
2023-03-22T07:04:07.687Z,13.72
2023-03-22T07:06:54.617Z,13.86
2023-03-22T07:09:42.543Z,13.74
2023-03-22T07:12:18.808Z,13.99
2023-03-22T07:15:27.671Z,14.28
2023-03-22T07:18:17.170Z,14.57
2023-03-22T07:20:48.632Z,14.67
2023-03-22T07:23:17.825Z,14.86
2023-03-22T07:25:58.938Z,15.02
2023-03-22T07:28:30.830Z,14.82
2023-03-22T07:31:08.707Z,14.69
2023-03-22T07:34:09.685Z,14.76
2023-03-22T07:37:03.128Z,14.79
2023-03-22T07:39:36.660Z,14.81
2023-03-22T07:42:14.545Z,15.06
2023-03-22T07:46:13.115Z,15.30
2023-03-22T07:49:07.500Z,15.62
2023-03-22T07:52:12.413Z,15.68
2023-03-22T07:55:41.302Z,15.75
2023-03-22T07:58:47.231Z,15.87
2023-03-22T08:02:47.645Z,16.05
2023-03-22T08:05:54.099Z,16.68
2023-03-22T08:12:15.270Z,16.97
2023-03-22T08:15:34.923Z,17.01
2023-03-22T08:22:21.717Z,17.44
2023-03-22T08:25:09.406Z,17.42
2023-03-22T08:27:39.667Z,17.52
2023-03-22T08:30:08.244Z,17.18
2023-03-22T08:32:36.869Z,17.45
2023-03-22T08:35:06.953Z,17.97
2023-03-22T08:37:35.010Z,17.80
2023-03-22T08:40:10.568Z,17.84
2023-03-22T08:42:50.841Z,17.76
2023-03-22T08:45:19.040Z,17.88
2023-03-22T08:47:58.185Z,18.11
2023-03-22T08:50:30.947Z,18.03
2023-03-22T08:53:18.564Z,18.16
2023-03-22T08:55:58.240Z,18.38
2023-03-22T09:01:48.607Z,18.29
2023-03-22T09:04:16.864Z,18.46
2023-03-22T09:06:45.701Z,18.20
2023-03-22T09:09:15.090Z,18.46
2023-03-22T09:11:45.714Z,18.66
2023-03-22T09:14:13.675Z,18.39
2023-03-22T09:16:43.014Z,18.58
2023-03-22T09:19:11.727Z,18.58
2023-03-22T09:21:40.556Z,18.91
2023-03-22T09:24:17.666Z,19.02
2023-03-22T09:26:50.618Z,18.78
2023-03-22T09:29:23.632Z,18.85
2023-03-22T09:31:51.917Z,18.64
2023-03-22T09:34:24.799Z,18.80
2023-03-22T09:36:54.315Z,18.90
2023-03-22T09:39:28.822Z,18.92
2023-03-22T09:42:02.790Z,19.01
2023-03-22T09:44:36.340Z,19.25
2023-03-22T09:47:15.874Z,19.45
2023-03-22T09:49:53.912Z,19.52
2023-03-22T09:52:22.238Z,19.50
2023-03-22T09:54:52.591Z,19.73
2023-03-22T09:57:37.323Z,19.89
2023-03-22T10:00:32.516Z,19.99
2023-03-22T10:03:17.656Z,20.12
2023-03-22T10:06:08.821Z,20.15
2023-03-22T10:08:54.965Z,20.32
2023-03-22T10:12:07.291Z,20.31
2023-03-22T10:14:42.442Z,20.41
2023-03-22T10:17:14.781Z,20.12
2023-03-22T10:20:08.275Z,20.37
2023-03-22T10:22:46.675Z,20.62
2023-03-22T10:25:22.645Z,20.60
2023-03-22T10:27:52.463Z,20.72
2023-03-22T10:30:22.081Z,20.93
2023-03-22T10:33:00.641Z,20.99
2023-03-22T10:35:30.768Z,20.95
2023-03-22T10:38:02.298Z,20.32
2023-03-22T10:40:33.707Z,20.81
2023-03-22T10:43:08.436Z,21.17
2023-03-22T10:45:37.490Z,20.39
2023-03-22T10:48:19.358Z,20.86
2023-03-22T10:50:47.987Z,20.70
2023-03-22T10:53:24.940Z,20.93
2023-03-22T10:55:53.471Z,20.91
2023-03-22T10:58:23.395Z,20.98
2023-03-22T11:00:55.221Z,20.37
2023-03-22T11:03:39.837Z,21.02
2023-03-22T11:06:25.001Z,20.77
2023-03-22T11:09:03.842Z,21.00
2023-03-22T11:11:36.699Z,21.18
2023-03-22T11:14:15.969Z,20.97
2023-03-22T11:16:56.201Z,20.87
2023-03-22T11:19:29.511Z,21.27
2023-03-22T11:21:59.588Z,21.58
2023-03-22T11:24:30.954Z,20.74
2023-03-22T11:27:09.206Z,21.29
2023-03-22T11:29:45.163Z,21.36
2023-03-22T11:32:36.259Z,21.34
2023-03-22T11:35:23.044Z,21.19
2023-03-22T11:37:56.131Z,21.28
2023-03-22T11:40:26.722Z,21.19
2023-03-22T11:43:02.718Z,21.09
2023-03-22T11:45:34.472Z,21.61
2023-03-22T11:48:07.417Z,21.43
2023-03-22T11:50:38.279Z,21.56
2023-03-22T11:53:12.436Z,21.53
2023-03-22T11:55:42.796Z,21.88
2023-03-22T11:58:39.922Z,21.67
2023-03-22T12:01:15.470Z,21.54
2023-03-22T12:03:48.168Z,22.20
2023-03-22T12:06:22.174Z,22.38
2023-03-22T12:08:58.002Z,22.41
2023-03-22T12:11:33.324Z,21.95
2023-03-22T12:14:22.109Z,21.87
2023-03-22T12:17:08.031Z,21.84
2023-03-22T12:20:00.960Z,22.09
2023-03-22T12:22:33.059Z,22.30
2023-03-22T12:25:04.134Z,22.31
2023-03-22T12:27:39.336Z,22.42
2023-03-22T12:30:17.188Z,21.85
2023-03-22T12:32:51.380Z,21.95
2023-03-22T12:35:25.854Z,22.42
2023-03-22T12:37:58.525Z,22.41
2023-03-22T12:40:34.199Z,22.41
2023-03-22T12:43:16.190Z,22.34
2023-03-22T12:45:49.396Z,22.68
2023-03-22T12:48:40.609Z,22.60
2023-03-22T12:51:15.928Z,22.64
2023-03-22T12:53:52.277Z,22.77
2023-03-22T12:56:25.482Z,22.65
2023-03-22T12:59:03.712Z,22.75
2023-03-22T13:01:46.178Z,22.67
2023-03-22T13:04:49.903Z,23.15
2023-03-22T13:07:37.588Z,23.12
2023-03-22T13:10:32.284Z,23.15
2023-03-22T13:13:22.119Z,23.16
2023-03-22T13:16:11.353Z,23.34
2023-03-22T13:19:07.624Z,23.50
2023-03-22T13:21:52.997Z,23.51
2023-03-22T13:24:30.234Z,23.22
2023-03-22T13:27:10.622Z,22.92
2023-03-22T13:29:39.301Z,23.01
2023-03-22T13:32:32.957Z,23.09
2023-03-22T13:35:19.966Z,22.82
2023-03-22T13:38:35.276Z,22.68
2023-03-22T13:41:15.268Z,22.28
2023-03-22T13:43:54.484Z,22.82
2023-03-22T13:46:38.261Z,22.99
2023-03-22T13:49:29.735Z,23.12
2023-03-22T13:52:02.334Z,23.00
2023-03-22T13:54:41.659Z,22.74
2023-03-22T13:57:50.169Z,22.53
2023-03-22T14:00:56.664Z,22.65
2023-03-22T14:03:46.988Z,22.83
2023-03-22T14:06:22.373Z,22.79
2023-03-22T14:08:58.661Z,22.81
2023-03-22T14:11:44.196Z,23.00
2023-03-22T14:14:27.869Z,22.88
2023-03-22T14:20:27.719Z,22.33
